createdAt,value
2023-04-21T00:00:24.232Z,44.80
2023-04-21T00:05:26.651Z,47.08
2023-04-21T00:10:27.350Z,45.13
2023-04-21T00:15:27.947Z,49.10
2023-04-21T00:20:30.597Z,43.83
2023-04-21T00:25:31.292Z,47.25
2023-04-21T00:30:31.908Z,44.45
2023-04-21T00:35:33.901Z,46.95
2023-04-21T00:40:34.853Z,45.53
2023-04-21T00:45:36.014Z,42.85
2023-04-21T00:50:38.154Z,46.00
2023-04-21T00:55:40.532Z,45.85
2023-04-21T01:00:42.998Z,50.67
2023-04-21T01:05:44.926Z,51.00
2023-04-21T01:10:45.901Z,52.38
2023-04-21T01:15:46.547Z,46.05
2023-04-21T01:20:50.016Z,45.42
2023-04-21T01:25:52.748Z,52.72
2023-04-21T01:30:54.138Z,46.35
2023-04-21T01:35:56.378Z,53.92
2023-04-21T01:40:58.385Z,44.88
2023-04-21T01:45:59.038Z,44.88
2023-04-21T01:50:59.658Z,46.25
2023-04-21T01:56:01.650Z,48.50
2023-04-21T02:01:04.945Z,45.35
2023-04-21T02:06:06.060Z,44.83
2023-04-21T02:11:08.351Z,46.05
2023-04-21T02:16:13.911Z,49.85
2023-04-21T02:21:15.467Z,44.28
2023-04-21T02:26:17.887Z,44.53
2023-04-21T02:31:18.744Z,38.20
2023-04-21T02:36:19.358Z,45.25
2023-04-21T02:41:21.286Z,43.67
2023-04-21T02:46:21.865Z,43.90
2023-04-21T02:51:23.562Z,44.80
2023-04-21T02:56:25.670Z,39.42
2023-04-21T03:01:26.355Z,39.33
2023-04-21T03:06:28.245Z,44.95
2023-04-21T03:11:30.208Z,44.42
2023-04-21T03:16:30.793Z,35.88
2023-04-21T03:21:31.869Z,44.55
2023-04-21T03:26:33.998Z,39.45
2023-04-21T03:31:34.613Z,39.28
2023-04-21T03:36:35.238Z,40.42
2023-04-21T03:41:37.269Z,44.55
2023-04-21T03:46:38.008Z,37.78
2023-04-21T03:51:38.614Z,37.40
2023-04-21T03:56:40.492Z,37.38
2023-04-21T04:01:42.267Z,37.33
2023-04-21T04:06:42.907Z,42.05
2023-04-21T04:11:44.809Z,44.65
2023-04-21T04:16:45.798Z,54.42
2023-04-21T04:21:48.848Z,40.10
2023-04-21T04:26:51.219Z,44.05
2023-04-21T04:31:52.164Z,40.25
2023-04-21T04:36:52.722Z,33.55
2023-04-21T04:41:54.603Z,31.75
2023-04-21T04:46:55.316Z,29.48
2023-04-21T04:51:56.133Z,31.65
2023-04-21T04:56:58.702Z,37.10
2023-04-21T05:01:59.325Z,35.28
2023-04-21T05:06:59.962Z,28.55
2023-04-21T05:12:02.470Z,30.05
2023-04-21T05:17:03.206Z,32.15
2023-04-21T05:22:06.455Z,34.83
2023-04-21T05:27:08.375Z,31.20
2023-04-21T05:32:09.192Z,27.67
2023-04-21T05:37:11.501Z,29.70
2023-04-21T05:42:13.439Z,30.20
2023-04-21T05:47:14.044Z,35.13
2023-04-21T05:52:14.621Z,33.00
2023-04-21T05:57:17.770Z,30.92
2023-04-21T06:02:18.708Z,31.10
2023-04-21T06:07:19.686Z,30.63
2023-04-21T06:12:21.575Z,28.60
2023-04-21T06:17:22.480Z,30.25
2023-04-21T06:22:23.358Z,27.55
2023-04-21T06:27:25.278Z,29.85
2023-04-21T06:32:25.972Z,31.42
2023-04-21T06:37:26.787Z,23.48
2023-04-21T06:42:28.725Z,28.70
2023-04-21T06:47:29.310Z,22.33
2023-04-21T06:52:29.970Z,23.92
2023-04-21T06:57:31.860Z,23.25
2023-04-21T07:02:32.614Z,24.60
2023-04-21T07:07:33.221Z,25.23
2023-04-21T07:12:35.099Z,18.58
2023-04-21T07:17:35.918Z,24.55
2023-04-21T07:22:37.005Z,23.08
2023-04-21T07:27:39.390Z,22.52
2023-04-21T07:32:40.083Z,17.45
2023-04-21T07:37:41.095Z,17.05
2023-04-21T07:42:43.131Z,15.65
2023-04-21T07:47:43.800Z,16.70
2023-04-21T07:52:44.506Z,15.50
2023-04-21T07:57:46.502Z,19.13
2023-04-21T08:02:47.259Z,19.77
2023-04-21T08:07:48.124Z,18.35
2023-04-21T08:12:50.094Z,16.55
2023-04-21T08:17:50.692Z,14.02
2023-04-21T08:22:51.413Z,16.98
2023-04-21T08:27:53.385Z,13.95
2023-04-21T08:32:54.015Z,15.40
2023-04-21T08:37:54.680Z,11.68
2023-04-21T08:42:59.255Z,10.43
2023-04-21T08:48:01.405Z,12.43
2023-04-21T08:53:02.084Z,11.98
2023-04-21T08:58:06.836Z,9.95
2023-04-21T09:03:19.241Z,12.93
2023-04-21T09:08:27.994Z,11.98
2023-04-21T09:13:34.358Z,9.32
2023-04-21T09:18:36.206Z,8.50
2023-04-21T09:23:44.455Z,9.93
2023-04-21T09:28:47.750Z,8.13
2023-04-21T09:39:17.793Z,10.10
2023-04-21T09:44:21.480Z,13.27
2023-04-21T09:49:24.188Z,9.32
2023-04-21T09:54:30.550Z,9.43
2023-04-21T09:59:36.595Z,10.10
2023-04-21T10:04:38.891Z,8.35
2023-04-21T10:09:45.896Z,12.45
2023-04-21T10:14:51.186Z,6.22
2023-04-21T10:19:53.550Z,6.28
2023-04-21T10:24:56.678Z,9.95
2023-04-21T10:29:59.564Z,12.15
2023-04-21T10:35:00.120Z,9.73
2023-04-21T10:40:00.713Z,7.55
2023-04-21T10:45:08.357Z,6.47
2023-04-21T10:50:14.879Z,18.83
2023-04-21T10:55:17.019Z,8.77
2023-04-21T11:00:21.712Z,8.70
2023-04-21T11:05:28.854Z,16.48
2023-04-21T11:10:29.472Z,14.43
2023-04-21T11:15:32.069Z,5.43
2023-04-21T11:20:32.767Z,11.77
2023-04-21T11:25:33.601Z,8.80
2023-04-21T11:30:36.125Z,8.43
2023-04-21T11:35:41.683Z,6.43
2023-04-21T11:40:47.503Z,14.77
2023-04-21T11:45:51.668Z,9.38
2023-04-21T11:50:52.283Z,9.23
2023-04-21T11:55:53.965Z,4.78
2023-04-21T12:00:56.173Z,9.15
2023-04-21T12:05:57.651Z,12.35
2023-04-21T12:10:59.269Z,8.32
2023-04-21T12:16:04.119Z,6.05
2023-04-21T12:21:05.314Z,11.25
2023-04-21T12:26:06.101Z,13.00
2023-04-21T12:31:08.096Z,6.72
2023-04-21T12:36:13.622Z,9.10
2023-04-21T12:41:27.426Z,10.48
2023-04-21T12:46:29.645Z,5.32
2023-04-21T12:51:31.550Z,10.55
2023-04-21T12:56:32.143Z,5.10
2023-04-21T13:01:34.215Z,11.98
2023-04-21T13:06:34.889Z,10.10
2023-04-21T13:11:35.592Z,7.38
2023-04-21T13:16:37.678Z,9.13
2023-04-21T13:21:38.542Z,13.55
2023-04-21T13:26:39.183Z,11.00
2023-04-21T13:31:41.340Z,2.97
2023-04-21T13:36:42.254Z,10.32
2023-04-21T13:41:42.989Z,8.80
2023-04-21T13:46:45.164Z,8.95
2023-04-21T13:51:45.882Z,14.02
2023-04-21T13:56:46.599Z,7.65
2023-04-21T14:01:48.799Z,10.07
2023-04-21T14:06:49.870Z,7.63
2023-04-21T14:11:51.112Z,5.60
2023-04-21T14:16:53.200Z,8.82
2023-04-21T14:21:54.017Z,10.20
2023-04-21T14:26:54.714Z,9.48
2023-04-21T14:31:58.588Z,11.77
2023-04-21T14:37:00.513Z,14.52
2023-04-21T14:42:01.872Z,8.98
2023-04-21T14:47:09.807Z,7.07
2023-04-21T14:52:11.562Z,10.82
2023-04-21T14:57:20.686Z,9.40
2023-04-21T15:02:23.920Z,9.20
2023-04-21T15:07:25.114Z,10.43
2023-04-21T15:12:26.265Z,7.80
2023-04-21T15:17:28.384Z,9.35
2023-04-21T15:22:29.207Z,6.50
2023-04-21T15:27:30.233Z,6.70
2023-04-21T15:32:32.375Z,7.72
2023-04-21T15:37:33.169Z,10.88
2023-04-21T15:42:33.864Z,9.45
2023-04-21T15:47:35.929Z,9.32
2023-04-21T15:52:37.770Z,11.43
2023-04-21T15:57:38.788Z,8.35
2023-04-21T16:02:41.132Z,9.65
2023-04-21T16:07:43.396Z,7.43
2023-04-21T16:12:45.472Z,10.40
2023-04-21T16:17:48.847Z,8.32
2023-04-21T16:22:50.120Z,15.43
2023-04-21T16:27:50.856Z,12.05
2023-04-21T16:32:52.862Z,10.15
2023-04-21T16:37:53.620Z,6.55
2023-04-21T16:42:54.387Z,6.85
2023-04-21T16:47:56.543Z,14.27
2023-04-21T16:52:57.425Z,18.08
2023-04-21T16:57:58.112Z,9.68
2023-04-21T17:03:00.324Z,11.43
2023-04-21T17:08:01.271Z,14.65
2023-04-21T17:13:02.031Z,9.23
2023-04-21T17:18:04.201Z,12.02
2023-04-21T17:23:05.059Z,12.02
2023-04-21T17:28:06.229Z,13.43
2023-04-21T17:33:15.877Z,10.40
2023-04-21T17:38:18.087Z,11.45
2023-04-21T17:43:18.756Z,16.83
2023-04-21T17:48:21.019Z,16.42
2023-04-21T17:53:21.725Z,13.50
2023-04-21T17:58:22.608Z,12.00
2023-04-21T18:03:24.852Z,8.43
2023-04-21T18:08:26.415Z,18.85
2023-04-21T18:13:27.133Z,15.48
2023-04-21T18:18:29.869Z,12.57
2023-04-21T18:23:30.514Z,15.30
2023-04-21T18:28:32.016Z,11.18
2023-04-21T18:33:34.051Z,12.38
2023-04-21T18:38:34.778Z,10.48
2023-04-21T18:43:35.560Z,28.35
2023-04-21T18:48:37.572Z,14.68
2023-04-21T18:53:38.231Z,14.18
2023-04-21T18:58:38.957Z,12.85
2023-04-21T19:03:41.183Z,16.92
2023-04-21T19:08:43.128Z,15.27
2023-04-21T19:13:44.024Z,12.55
2023-04-21T19:18:47.326Z,15.60
2023-04-21T19:23:48.308Z,12.63
2023-04-21T19:28:49.254Z,13.88
2023-04-21T19:33:52.439Z,13.48
2023-04-21T19:38:53.159Z,13.30
2023-04-21T19:43:53.861Z,12.90
2023-04-21T19:48:55.886Z,12.07
2023-04-21T19:54:10.089Z,11.88
2023-04-21T19:59:12.368Z,11.10
2023-04-21T20:04:14.553Z,16.55
2023-04-21T20:09:16.082Z,14.73
2023-04-21T20:14:18.335Z,12.90
2023-04-21T20:19:23.018Z,14.43
2023-04-21T20:24:23.985Z,11.60
2023-04-21T20:29:24.698Z,15.40
2023-04-21T20:34:26.781Z,12.30
2023-04-21T20:39:27.448Z,10.48
2023-04-21T20:44:31.409Z,11.65
2023-04-21T20:49:33.510Z,15.57
2023-04-21T20:54:34.830Z,13.10
2023-04-21T20:59:36.023Z,15.40
2023-04-21T21:04:38.261Z,15.10
2023-04-21T21:09:39.943Z,10.75
2023-04-21T21:14:41.080Z,10.27
2023-04-21T21:19:43.129Z,18.33
2023-04-21T21:24:43.991Z,12.65
2023-04-21T21:29:44.710Z,17.58
2023-04-21T21:34:46.725Z,16.17
2023-04-21T21:39:47.361Z,17.52
2023-04-21T21:44:47.999Z,18.27
2023-04-21T21:49:54.704Z,15.43
2023-04-21T21:54:56.889Z,14.75
2023-04-21T21:59:57.600Z,16.75
2023-04-21T22:04:59.805Z,19.65
2023-04-21T22:10:00.591Z,19.55
2023-04-21T22:15:01.235Z,17.25
2023-04-21T22:20:08.162Z,19.17
2023-04-21T22:25:10.835Z,29.45
2023-04-21T22:30:12.332Z,29.95
2023-04-21T22:35:14.427Z,23.90
2023-04-21T22:40:15.198Z,25.52
2023-04-21T22:45:15.878Z,25.65
2023-04-21T22:50:17.869Z,15.07
2023-04-21T22:55:18.790Z,19.27
2023-04-21T23:00:19.450Z,17.65
2023-04-21T23:05:21.417Z,15.45
2023-04-21T23:10:22.247Z,16.00
2023-04-21T23:15:22.963Z,19.08
2023-04-21T23:20:25.014Z,16.98
2023-04-21T23:25:25.764Z,15.68
2023-04-21T23:30:26.443Z,13.70
2023-04-21T23:35:28.682Z,13.68
2023-04-21T23:40:29.573Z,17.48
2023-04-21T23:45:30.389Z,16.30
2023-04-21T23:50:32.525Z,16.20
2023-04-21T23:55:33.239Z,16.02
